Time;durP1;ratioP1;P1;durP2;ratioP2;P2;SDS_P1;SDS_P2;PMS_P1;PMS_P2;Temp;Humidity;BMP_temperature;BMP_pressure;BME280_temperature;BME280_humidity;BME280_pressure;Samples;Min_cycle;Max_cycle;Signal;HPM_P1;HPM_P2
2021/03/27 12:32:01;;;;;;;10.27;8.10;;;;;;;14.08;28.75;100973.02;1582279;85;5477788;-90
2021/03/27 12:35:33;;;;;;;13.93;9.35;;;;;;;14.28;27.04;100969.63;1680365;79;78496;-81
2021/03/27 12:38:18;;;;;;;10.23;9.25;;;;;;;14.08;27.69;100965.50;1657492;85;21388;-76
2021/03/27 12:41:06;;;;;;;10.80;9.60;;;;;;;13.92;28.09;100962.59;1599009;84;48174;-76
2021/03/27 12:43:45;;;;;;;11.10;9.60;;;;;;;13.88;28.68;100962.66;1617401;86;21219;-78
2021/03/27 12:46:38;;;;;;;10.28;9.28;;;;;;;13.84;28.53;100968.92;1666548;84;21097;-79
2021/03/27 12:49:36;;;;;;;11.28;8.65;;;;;;;13.81;28.54;100971.49;1651086;85;26529;-76
2021/03/27 12:52:23;;;;;;;11.68;10.48;;;;;;;13.74;28.14;100971.94;1668759;85;21197;-77
2021/03/27 12:55:20;;;;;;;;;;;;;;;13.71;29.02;100973.69;1674295;84;21153;-78
2021/03/27 12:58:04;;;;;;;14.00;12.05;;;;;;;13.69;29.96;100974.89;1682274;84;20227;-78
2021/03/27 13:00:48;;;;;;;15.85;13.28;;;;;;;13.65;30.33;100973.63;1658596;85;21095;-78
2021/03/27 13:03:33;;;;;;;14.15;10.98;;;;;;;13.68;30.62;100976.74;1658534;84;21155;-76
2021/03/27 13:06:28;;;;;;;15.58;12.65;;;;;;;13.71;30.84;100975.52;1658294;85;21241;-73
2021/03/27 13:09:42;;;;;;;11.50;10.40;;;;;;;13.72;31.14;100971.31;1649686;85;21213;-80
2021/03/27 13:12:25;;;;;;;17.00;13.88;;;;;;;13.75;30.75;100964.73;1651251;84;21130;-80
2021/03/27 13:15:16;;;;;;;14.30;12.78;;;;;;;13.76;30.99;100963.72;1641507;85;21354;-83
2021/03/27 13:18:11;;;;;;;13.25;11.95;;;;;;;13.81;31.25;100963.45;1667857;84;21203;-84
2021/03/27 13:20:58;;;;;;;12.23;9.25;;;;;;;13.88;31.10;100957.31;1677979;84;21189;-84
2021/03/27 13:23:32;;;;;;;9.60;8.60;;;;;;;13.91;29.47;100956.41;1711118;82;21150;-79
2021/03/27 13:26:28;;;;;;;11.85;10.48;;;;;;;13.89;27.94;100960.32;1717002;82;21182;-80
2021/03/27 13:29:35;;;;;;;10.70;8.90;;;;;;;13.82;27.90;100950.39;1701650;82;21760;-80
2021/03/27 13:32:26;;;;;;;9.60;8.70;;;;;;;13.77;28.36;100948.80;1712518;82;21302;-77
2021/03/27 13:35:16;;;;;;;12.65;10.70;;;;;;;13.76;28.29;100955.16;1714348;80;21485;-82
2021/03/27 13:37:56;;;;;;;10.98;9.55;;;;;;;13.75;27.85;100945.48;1714149;82;21258;-79
2021/03/27 13:40:31;;;;;;;7.58;6.78;;;;;;;13.74;27.63;100942.99;1720990;82;21692;-79
2021/03/27 13:43:21;;;;;;;7.00;6.40;;;;;;;13.76;26.30;100953.00;1694650;82;21198;-81
2021/03/27 13:46:09;;;;;;;9.58;8.43;;;;;;;13.76;26.01;100953.82;1710511;83;21041;-80
2021/03/27 13:48:56;;;;;;;12.45;8.60;;;;;;;13.46;26.81;100899.59;1718762;82;21131;-78
2021/03/27 13:51:33;;;;;;;9.88;8.90;;;;;;;13.77;27.16;100948.80;1693058;82;21184;-81
2021/03/27 13:54:20;;;;;;;10.20;9.28;;;;;;;13.79;27.29;100945.92;1713419;82;21209;-81
2021/03/27 13:57:09;;;;;;;11.08;9.50;;;;;;;13.77;27.71;100958.17;1718088;81;21160;-81
2021/03/27 13:59:52;;;;;;;11.38;10.13;;;;;;;13.72;28.01;100951.73;1711789;82;21182;-82
2021/03/27 14:02:42;;;;;;;11.95;10.40;;;;;;;13.69;28.38;100943.55;1710555;82;21718;-78
2021/03/27 14:05:23;;;;;;;10.05;9.05;;;;;;;13.71;28.75;100942.88;1702071;83;21157;-80
2021/03/27 14:08:15;;;;;;;9.58;8.55;;;;;;;13.73;28.47;100941.33;1703797;82;21176;-81
2021/03/27 14:10:52;;;;;;;8.55;7.85;;;;;;;13.74;28.24;100934.95;1710620;82;21163;-80
2021/03/27 14:13:38;;;;;;;9.85;8.35;;;;;;;13.75;28.19;100940.61;1717775;81;21071;-80
2021/03/27 14:16:35;;;;;;;10.18;9.18;;;;;;;13.77;28.26;100938.08;1717314;82;21588;-80
2021/03/27 14:19:47;;;;;;;11.05;9.30;;;;;;;13.80;28.49;100940.34;1713649;82;21175;-81
2021/03/27 14:22:35;;;;;;;10.40;8.63;;;;;;;13.83;28.60;100935.95;1710653;82;21186;-80
2021/03/27 14:25:37;;;;;;;13.58;12.37;;;;;;;13.89;28.87;100930.32;1801156;76;28024;-77
2021/03/27 14:28:34;;;;;;;11.88;10.68;;;;;;;14.10;28.60;100933.96;1707935;83;21274;-79
2021/03/27 14:31:13;;;;;;;12.13;10.60;;;;;;;14.26;28.46;100936.33;1684357;83;21148;-79
2021/03/27 14:33:59;;;;;;;12.93;8.60;;;;;;;14.20;28.41;100935.27;1668174;82;21291;-79
2021/03/27 14:37:04;;;;;;;11.15;9.70;;;;;;;14.23;28.31;100931.87;1783141;78;23444;-80
2021/03/27 14:39:57;;;;;;;10.82;9.73;;;;;;;14.13;28.45;100933.06;1749305;78;21271;-79
2021/03/27 14:43:04;;;;;;;9.10;8.23;;;;;;;14.08;28.35;100927.45;1791227;80;21127;-80
2021/03/27 14:45:58;;;;;;;11.10;8.83;;;;;;;14.04;27.65;100930.22;1753268;80;21043;-79
2021/03/27 14:48:36;;;;;;;13.98;9.10;;;;;;;13.96;27.17;100927.18;1665625;85;21414;-80
2021/03/27 14:51:26;;;;;;;9.95;8.98;;;;;;;13.90;27.79;100923.10;1690943;83;21163;-80
2021/03/27 14:54:01;;;;;;;11.00;10.05;;;;;;;13.88;28.24;100923.32;1689083;83;21195;-80
2021/03/27 14:56:36;;;;;;;;;;;;;;;13.88;28.17;100925.16;1642066;84;21128;-80
2021/03/27 14:59:27;;;;;;;11.20;8.35;;;;;;;13.88;28.42;100934.53;1619426;87;20214;-80
2021/03/27 15:02:23;;;;;;;10.40;9.20;;;;;;;13.81;28.53;100929.96;1629633;86;22017;-80
2021/03/27 15:05:05;;;;;;;14.40;12.20;;;;;;;13.82;28.60;100930.30;1648114;85;21179;-78
2021/03/27 15:07:59;;;;;;;13.75;12.00;;;;;;;13.59;28.81;100889.50;1658298;85;21166;-80
2021/03/27 15:10:45;;;;;;;16.55;12.18;;;;;;;13.85;29.07;100930.41;1657070;84;21476;-80
2021/03/27 15:13:30;;;;;;;13.05;11.05;;;;;;;13.83;29.11;100934.61;1686600;83;21180;-81
2021/03/27 15:16:31;;;;;;;13.18;10.82;;;;;;;13.82;29.04;100938.33;1688331;83;21223;-79
2021/03/27 15:19:26;;;;;;;10.95;9.88;;;;;;;13.83;29.20;100935.95;1633505;85;21181;-78
2021/03/27 15:22:19;;;;;;;8.98;8.18;;;;;;;13.85;28.80;100933.60;1617314;86;21466;-81
2021/03/27 15:27:54;;;;;;;8.88;7.97;;;;;;;13.76;28.19;100940.95;1688554;83;21165;-79
2021/03/27 15:30:26;;;;;;;8.08;7.00;;;;;;;13.73;28.06;100941.33;1683687;83;21169;-79
2021/03/27 15:33:11;;;;;;;11.53;8.58;;;;;;;13.71;27.80;100944.22;1659922;85;21197;-81
2021/03/27 15:36:22;;;;;;;14.58;9.40;;;;;;;13.71;27.87;100945.56;1668672;84;21165;-79
2021/03/27 15:39:08;;;;;;;8.95;7.95;;;;;;;13.72;28.07;100943.70;1649685;85;21246;-80
2021/03/27 15:42:01;;;;;;;10.85;9.55;;;;;;;13.69;28.18;100944.90;1667845;85;21249;-79
2021/03/27 15:44:35;;;;;;;14.40;9.05;;;;;;;13.67;28.33;100951.48;1656403;83;21056;-81
2021/03/27 15:47:18;;;;;;;10.85;9.85;;;;;;;13.64;28.60;100958.06;1669883;82;21185;-80
2021/03/27 15:50:00;;;;;;;12.45;10.80;;;;;;;13.63;28.76;100959.08;1651104;85;21362;-79
2021/03/27 15:52:47;;;;;;;11.95;10.53;;;;;;;13.60;28.99;100953.60;1633787;84;66370;-80
2021/03/27 15:55:40;;;;;;;12.37;10.55;;;;;;;13.58;29.16;100961.49;1649939;84;21370;-79
2021/03/27 15:58:39;;;;;;;13.53;12.37;;;;;;;13.53;29.42;100962.61;1608292;87;21253;-81
2021/03/27 16:01:19;;;;;;;15.15;13.55;;;;;;;13.47;29.63;100967.37;1620358;87;21199;-76
2021/03/27 16:04:43;;;;;;;13.35;12.07;;;;;;;13.40;29.80;100967.32;1629918;87;21211;-75
2021/03/27 16:07:28;;;;;;;15.40;13.50;;;;;;;13.39;30.03;100965.65;1779935;79;28133;-76
2021/03/27 16:10:07;;;;;;;13.83;12.63;;;;;;;13.49;29.92;100973.39;1741587;82;21140;-75
2021/03/27 16:13:05;;;;;;;13.78;12.30;;;;;;;13.56;29.82;100970.23;1710044;82;21044;-76
2021/03/27 16:16:00;;;;;;;13.93;12.03;;;;;;;13.42;30.09;100971.45;1686513;83;21145;-75
2021/03/27 16:18:58;;;;;;;18.95;15.70;;;;;;;13.29;30.23;100971.81;1689192;83;21128;-75
2021/03/27 16:21:49;;;;;;;17.30;15.50;;;;;;;13.21;30.42;100979.46;1688521;83;21835;-75
2021/03/27 16:24:39;;;;;;;18.35;16.07;;;;;;;13.11;30.56;100977.09;1689437;82;21305;-75
2021/03/27 16:27:18;;;;;;;20.12;14.05;;;;;;;13.02;30.81;100981.73;1687303;83;21155;-77
2021/03/27 16:30:03;;;;;;;21.55;15.55;;;;;;;12.94;30.98;100980.52;1692725;84;21202;-76
2021/03/27 16:32:40;;;;;;;20.43;16.52;;;;;;;12.85;31.10;100982.45;1692437;83;21131;-76
2021/03/27 16:35:28;;;;;;;16.97;14.35;;;;;;;12.74;31.13;100978.10;1671759;83;21076;-74
2021/03/27 16:38:12;;;;;;;33.58;14.47;;;;;;;12.66;31.44;100982.53;1667920;83;21194;-75
2021/03/27 16:41:03;;;;;;;27.95;14.30;;;;;;;12.55;31.70;100986.20;1681356;83;21175;-76
2021/03/27 16:43:55;;;;;;;21.95;13.65;;;;;;;12.45;31.96;100994.47;1687954;83;21234;-75
2021/03/27 16:46:42;;;;;;;43.08;15.90;;;;;;;12.36;32.38;100995.60;1680779;83;21252;-74
2021/03/27 16:49:18;;;;;;;57.60;17.57;;;;;;;12.25;32.86;101000.38;1677000;84;21612;-76
2021/03/27 16:52:26;;;;;;;56.67;17.90;;;;;;;12.14;33.15;101003.49;1676500;84;21179;-75
2021/03/27 16:55:18;;;;;;;57.15;16.17;;;;;;;12.05;33.30;101000.58;1665168;84;21307;-75
2021/03/27 16:58:07;;;;;;;52.87;16.10;;;;;;;11.93;33.73;101007.38;1677347;84;21296;-76
2021/03/27 17:00:57;;;;;;;75.07;19.63;;;;;;;11.81;33.70;101002.92;1678092;84;21058;-76
2021/03/27 17:03:52;;;;;;;73.07;21.17;;;;;;;11.74;34.07;101007.34;1646123;85;21403;-76
2021/03/27 17:06:28;;;;;;;78.87;18.83;;;;;;;11.66;34.59;101008.25;1678474;81;21273;-74
2021/03/27 17:09:30;;;;;;;58.83;17.03;;;;;;;11.47;34.81;101000.19;1668973;84;21169;-77
2021/03/27 17:12:26;;;;;;;45.17;15.57;;;;;;;11.46;34.95;101014.55;1651164;82;21039;-76
2021/03/27 17:15:12;;;;;;;35.07;15.10;;;;;;;11.36;35.29;101014.80;1625778;86;21883;-76
2021/03/27 17:18:02;;;;;;;47.47;17.23;;;;;;;11.26;35.61;101016.84;1622768;86;21541;-77
2021/03/27 17:21:01;;;;;;;28.13;19.60;;;;;;;11.16;35.74;101018.41;1603705;87;21398;-75
2021/03/27 17:23:42;;;;;;;36.80;19.50;;;;;;;11.08;35.18;101019.28;1571321;87;21135;-77
2021/03/27 17:26:38;;;;;;;31.73;21.70;;;;;;;11.07;35.30;101017.61;1557932;90;21199;-75
2021/03/27 17:29:38;;;;;;;35.43;23.27;;;;;;;11.07;35.24;101018.94;1563804;90;21175;-77
2021/03/27 17:32:38;;;;;;;42.73;24.57;;;;;;;11.10;35.31;101019.94;1582291;89;21772;-76
2021/03/27 17:35:29;;;;;;;28.07;20.87;;;;;;;11.14;35.48;101022.27;1635661;87;21237;-76
2021/03/27 17:38:36;;;;;;;35.97;20.40;;;;;;;11.15;35.91;101020.77;1618567;87;21241;-76
2021/03/27 17:41:42;;;;;;;37.40;20.60;;;;;;;11.14;36.33;101031.61;1636954;85;21442;-78
2021/03/27 17:44:27;;;;;;;40.27;21.60;;;;;;;11.04;36.54;101029.16;1628715;85;21354;-83
2021/03/27 17:47:09;;;;;;;29.43;22.07;;;;;;;10.92;36.68;101030.02;1635938;87;21121;-78
2021/03/27 17:49:45;;;;;;;44.50;24.57;;;;;;;10.82;36.76;101027.57;1629824;86;21240;-78
2021/03/27 17:52:17;;;;;;;36.67;24.10;;;;;;;10.78;36.30;101026.26;1637440;86;21171;-77
2021/03/27 17:54:59;;;;;;;44.73;23.90;;;;;;;10.78;36.41;101029.44;1636400;86;22032;-76
2021/03/27 17:58:00;;;;;;;39.93;26.23;;;;;;;10.80;36.75;101028.76;1619694;86;21566;-76
2021/03/27 18:00:43;;;;;;;39.10;26.13;;;;;;;10.79;36.67;101031.91;1601991;87;21563;-77
2021/03/27 18:03:25;;;;;;;50.90;28.17;;;;;;;10.45;36.67;100978.41;1583941;89;21175;-77
2021/03/27 18:06:12;;;;;;;38.13;26.83;;;;;;;10.70;36.91;101032.45;1600428;87;21174;-77
2021/03/27 18:09:02;;;;;;;39.13;26.73;;;;;;;10.65;36.99;101036.13;1584261;89;21192;-77
2021/03/27 18:11:53;;;;;;;44.63;29.60;;;;;;;10.58;37.27;101041.81;1651354;85;21227;-78
2021/03/27 18:17:30;;;;;;;37.20;26.87;;;;;;;10.35;38.18;101043.05;1803559;78;23193;-77
2021/03/27 18:20:23;;;;;;;40.70;25.40;;;;;;;10.23;38.17;101045.20;1765103;79;21192;-78
2021/03/27 18:23:21;;;;;;;44.77;28.60;;;;;;;10.18;38.12;101048.86;1731374;80;21107;-77
2021/03/27 18:26:12;;;;;;;39.33;26.60;;;;;;;10.16;38.29;101054.86;1717597;82;21368;-85
2021/03/27 18:29:22;;;;;;;33.20;25.37;;;;;;;10.11;38.22;101058.52;1712711;82;21184;-89
2021/03/27 18:32:06;;;;;;;37.83;28.33;;;;;;;10.07;38.27;101049.20;1745433;81;21313;-88
2021/03/27 18:34:48;;;;;;;35.77;26.80;;;;;;;10.06;38.30;101051.55;1728600;81;21238;-90
2021/03/27 18:37:34;;;;;;;37.40;26.77;;;;;;;10.05;38.26;101061.35;1740446;82;21335;-89
2021/03/27 18:43:34;;;;;;;33.63;25.57;;;;;;;10.10;38.37;101057.70;1759037;79;22796;-91
2021/03/27 18:46:15;;;;;;;39.83;27.07;;;;;;;10.08;38.57;101061.54;1719044;82;21107;-91
2021/03/27 18:48:57;;;;;;;40.47;28.03;;;;;;;10.07;38.74;101063.86;1712080;82;21247;-89
2021/03/27 18:52:07;;;;;;;34.03;26.10;;;;;;;10.12;38.92;101063.69;1791576;77;23074;-89
2021/03/27 18:54:48;;;;;;;38.57;28.70;;;;;;;10.08;39.02;101067.69;1753925;80;21228;-88
2021/03/27 18:57:39;;;;;;;43.20;30.30;;;;;;;10.08;39.18;101072.20;1646559;82;21185;-87
2021/03/27 19:00:23;;;;;;;39.27;28.57;;;;;;;10.07;39.29;101072.67;1661757;84;21321;-87
2021/03/27 19:02:59;;;;;;;35.03;27.53;;;;;;;10.08;39.39;101069.53;1674813;84;21684;-86
2021/03/27 19:05:44;;;;;;;41.58;28.25;;;;;;;10.11;39.50;101071.36;1635359;86;21319;-90
2021/03/27 19:08:28;;;;;;;38.17;27.77;;;;;;;10.13;39.55;101079.16;1611699;87;21194;-91
2021/03/27 19:11:23;;;;;;;40.70;29.17;;;;;;;10.14;39.77;101079.51;1613866;86;21265;-89
2021/03/27 19:14:08;;;;;;;38.50;29.70;;;;;;;10.14;39.95;101080.84;1620351;86;21720;-89
2021/03/27 19:16:42;;;;;;;36.43;27.47;;;;;;;10.11;39.94;101083.34;1631365;86;21258;-88
2021/03/27 19:19:26;;;;;;;38.73;29.30;;;;;;;10.09;40.17;101082.66;1628427;87;21187;-94
2021/03/27 19:22:04;;;;;;;42.07;29.63;;;;;;;10.08;40.28;101082.84;1635813;86;21390;-89
2021/03/27 19:24:58;;;;;;;38.33;29.33;;;;;;;10.08;40.51;101089.51;1621357;86;21364;-91
2021/03/27 19:27:43;;;;;;;36.90;28.60;;;;;;;10.06;40.71;101079.52;1625850;86;21193;-92
2021/03/27 19:30:30;;;;;;;41.02;30.55;;;;;;;10.07;41.06;101090.49;1626333;87;21234;-90
2021/03/27 19:33:18;;;;;;;39.57;29.23;;;;;;;10.05;41.13;101092.49;1613808;87;21255;-89
2021/03/27 19:35:56;;;;;;;38.63;29.50;;;;;;;10.03;41.34;101091.83;1621627;86;21160;-90
2021/03/27 19:38:41;;;;;;;38.17;29.70;;;;;;;10.01;41.36;101097.83;1614098;86;21216;-91
2021/03/27 19:41:16;;;;;;;44.60;31.57;;;;;;;10.00;41.70;101088.16;1626334;86;21237;-90
2021/03/27 19:43:56;;;;;;;45.60;33.35;;;;;;;9.96;41.79;101092.98;1618154;86;21236;-89
2021/03/27 19:46:52;;;;;;;44.40;38.60;;;;;;;9.96;41.91;101092.98;1672102;79;28580;-90
2021/03/27 19:49:28;;;;;;;44.03;33.90;;;;;;;10.11;41.83;101096.67;1678817;82;21147;-89
2021/03/27 19:52:30;;;;;;;45.83;34.77;;;;;;;10.20;41.68;101100.14;1687113;84;21275;-90
2021/03/27 19:55:18;;;;;;;41.87;32.90;;;;;;;10.10;41.89;101103.49;1688437;84;21105;-88
2021/03/27 19:58:06;;;;;;;42.97;35.13;;;;;;;10.01;42.22;101102.64;1692018;84;21177;-89
2021/03/27 20:00:59;;;;;;;45.03;37.15;;;;;;;9.92;42.75;101096.98;1686735;82;21010;-87
2021/03/27 20:03:34;;;;;;;47.30;34.23;;;;;;;9.84;42.89;101096.98;1716027;82;21192;-87
2021/03/27 20:06:10;;;;;;;38.67;31.70;;;;;;;9.77;43.17;101102.12;1714136;83;21141;-86
2021/03/27 20:08:56;;;;;;;41.88;34.45;;;;;;;9.71;43.43;101101.45;1717004;83;21302;-85
2021/03/27 20:11:29;;;;;;;42.37;34.77;;;;;;;9.67;43.50;101104.11;1718154;80;21019;-85
2021/03/27 20:14:05;;;;;;;41.43;34.90;;;;;;;9.62;43.79;101107.75;1704634;83;21164;-86
2021/03/27 20:16:47;;;;;;;41.63;35.27;;;;;;;9.59;43.86;101106.73;1694384;83;21180;-87
2021/03/27 20:19:21;;;;;;;46.37;32.40;;;;;;;9.57;43.89;101110.91;1705021;83;21168;-86
2021/03/27 20:22:03;;;;;;;42.40;33.60;;;;;;;9.55;44.16;101107.08;1709099;83;21186;-86
2021/03/27 20:24:42;;;;;;;46.53;33.60;;;;;;;9.51;44.48;101111.06;1701841;83;21334;-85
2021/03/27 20:27:30;;;;;;;43.13;33.50;;;;;;;9.46;44.43;101110.71;1704307;83;21175;-87
2021/03/27 20:30:34;;;;;;;45.03;32.83;;;;;;;9.41;44.62;101113.02;1688280;83;21156;-88
2021/03/27 20:33:12;;;;;;;41.23;32.93;;;;;;;9.38;44.67;101113.83;1695045;83;21179;-87
2021/03/27 20:36:02;;;;;;;45.43;34.67;;;;;;;9.33;44.72;101113.83;1688574;83;21321;-85
2021/03/27 20:39:11;;;;;;;44.53;31.73;;;;;;;9.32;44.86;101119.30;1701121;83;21314;-85
2021/03/27 20:41:55;;;;;;;41.58;31.52;;;;;;;9.28;44.94;101115.30;1683604;83;21722;-85
2021/03/27 20:44:43;;;;;;;43.80;31.13;;;;;;;9.23;45.03;101115.80;1690478;83;21093;-86
2021/03/27 20:47:29;;;;;;;42.47;31.37;;;;;;;9.19;45.08;101120.25;1628705;87;21233;-88
2021/03/27 20:50:41;;;;;;;41.27;32.60;;;;;;;9.21;45.18;101112.94;1752148;79;23145;-86
2021/03/27 20:53:37;;;;;;;40.63;31.97;;;;;;;9.14;45.12;101120.75;1716266;82;21236;-87
2021/03/27 20:56:31;;;;;;;46.80;32.70;;;;;;;9.09;45.26;101120.38;1700583;82;21111;-87
2021/03/27 20:59:17;;;;;;;44.63;33.37;;;;;;;9.05;45.34;101117.70;1670360;84;21248;-87
2021/03/27 21:02:29;;;;;;;44.07;32.20;;;;;;;9.01;45.43;101123.02;1629971;87;21125;-87
2021/03/27 21:05:18;;;;;;;45.13;32.73;;;;;;;8.96;45.46;101116.83;1627811;87;21195;-86
2021/03/27 21:07:58;;;;;;;38.43;30.80;;;;;;;8.90;45.50;101124.94;1627555;86;21179;-84
2021/03/27 21:10:31;;;;;;;43.40;32.80;;;;;;;8.86;45.58;101129.41;1617177;87;21248;-87
2021/03/27 21:13:26;;;;;;;42.17;31.23;;;;;;;8.84;45.59;101124.25;1646110;85;21153;-83
2021/03/27 21:16:33;;;;;;;44.77;34.23;;;;;;;8.79;45.94;101121.72;1643089;86;21377;-86
2021/03/27 21:19:22;;;;;;;47.90;32.90;;;;;;;8.71;46.20;101123.84;1642994;86;21215;-86
2021/03/27 21:22:19;;;;;;;44.83;33.13;;;;;;;8.61;46.09;101131.06;1651911;86;21245;-87
2021/03/27 21:25:09;;;;;;;45.87;33.83;;;;;;;8.52;46.35;101134.19;1644224;86;21204;-86
2021/03/27 21:28:01;;;;;;;44.67;34.13;;;;;;;8.47;46.58;101136.46;1648060;86;21183;-85
2021/03/27 21:30:39;;;;;;;45.60;34.33;;;;;;;8.37;46.59;101140.01;1652206;85;21193;-86
2021/03/27 21:33:19;;;;;;;49.17;35.20;;;;;;;8.31;46.75;101139.81;1651177;84;21203;-87
2021/03/27 21:36:07;;;;;;;43.80;34.63;;;;;;;8.26;47.04;101142.08;1699052;83;21201;-86
2021/03/27 21:39:03;;;;;;;;;;;;;;;8.21;47.27;101141.70;1704013;84;21155;-88
2021/03/27 21:42:25;;;;;;;46.50;32.60;;;;;;;8.15;47.35;101147.12;1695726;84;20220;-86
2021/03/27 21:45:01;;;;;;;43.73;32.43;;;;;;;8.04;47.46;101148.69;1704591;83;22182;-84
2021/03/27 21:47:55;;;;;;;48.60;33.57;;;;;;;7.98;47.49;101146.14;1700557;83;21340;-84
2021/03/27 21:51:01;;;;;;;42.53;33.57;;;;;;;7.96;47.52;101151.59;1651571;86;21218;-84
2021/03/27 21:54:08;;;;;;;46.47;34.80;;;;;;;7.93;47.53;101147.08;1680257;85;21366;-83
2021/03/27 21:57:04;;;;;;;44.47;32.70;;;;;;;7.89;47.66;101153.69;1669522;84;21138;-85
2021/03/27 21:59:39;;;;;;;41.93;31.00;;;;;;;7.85;47.78;101150.49;1627560;84;21964;-84
2021/03/27 22:02:32;;;;;;;39.60;31.77;;;;;;;7.79;47.82;101153.25;1668794;84;21658;-84
2021/03/27 22:05:11;;;;;;;38.60;30.07;;;;;;;7.75;47.91;101151.06;1668115;84;21177;-84
2021/03/27 22:08:06;;;;;;;40.30;31.50;;;;;;;7.73;47.94;101157.02;1622228;87;21371;-89
2021/03/27 22:10:49;;;;;;;39.20;31.40;;;;;;;7.71;48.07;101151.85;1669928;84;21136;-88
2021/03/27 22:13:44;;;;;;;39.53;30.73;;;;;;;7.68;48.10;101160.10;1674683;85;21769;-87
2021/03/27 22:16:39;;;;;;;37.63;28.00;;;;;;;7.68;48.03;101162.75;1630012;86;21209;-87
2021/03/27 22:19:49;;;;;;;34.53;28.20;;;;;;;7.67;48.16;101170.89;1678208;85;21350;-87
2021/03/27 22:22:23;;;;;;;33.13;26.47;;;;;;;7.65;48.13;101164.87;1666755;84;21175;-87
2021/03/27 22:25:12;;;;;;;34.80;27.77;;;;;;;7.65;47.97;101167.52;1660181;85;21220;-86
2021/03/27 22:27:50;;;;;;;34.73;28.07;;;;;;;7.69;48.03;101171.58;1687692;81;21186;-87
2021/03/27 22:31:07;;;;;;;38.07;29.23;;;;;;;7.73;48.02;101167.63;1675779;84;21353;-86
2021/03/27 22:34:09;;;;;;;31.10;24.57;;;;;;;7.63;47.94;101149.59;1680481;84;21113;-86
2021/03/27 22:36:47;;;;;;;33.53;27.47;;;;;;;7.76;48.04;101173.48;1683059;85;21211;-86
2021/03/27 22:39:20;;;;;;;34.83;27.10;;;;;;;7.75;48.20;101175.78;1674870;84;21261;-85
2021/03/27 22:42:16;;;;;;;33.03;26.47;;;;;;;7.71;48.21;101175.73;1673977;84;21152;-86
2021/03/27 22:44:59;;;;;;;32.17;25.43;;;;;;;7.68;48.10;101175.20;1683231;84;21107;-82
2021/03/27 22:47:58;;;;;;;31.90;26.13;;;;;;;7.68;48.27;101184.48;1672060;84;21204;-83
2021/03/27 22:50:40;;;;;;;38.60;29.45;;;;;;;7.25;48.16;101111.20;1682734;85;21222;-83
2021/03/27 22:53:30;;;;;;;36.20;27.60;;;;;;;7.64;48.17;101179.14;1676453;84;21384;-81
2021/03/27 22:56:39;;;;;;;33.97;26.27;;;;;;;7.64;48.04;101179.14;1684151;83;21165;-87
2021/03/27 22:59:23;;;;;;;34.23;25.37;;;;;;;7.66;47.92;101177.99;1686897;84;21161;-86
2021/03/27 23:02:10;;;;;;;33.90;26.27;;;;;;;7.69;47.74;101180.36;1687330;83;21081;-86
2021/03/27 23:04:45;;;;;;;33.75;26.35;;;;;;;7.72;47.66;101176.56;1688775;80;21237;-87
2021/03/27 23:07:54;;;;;;;35.70;26.83;;;;;;;7.75;47.65;101177.10;1683557;84;21195;-83
2021/03/27 23:10:36;;;;;;;32.10;26.45;;;;;;;7.78;47.54;101172.01;1683041;85;21338;-85
2021/03/27 23:13:15;;;;;;;32.17;25.53;;;;;;;7.79;47.47;101177.64;1676820;83;21259;-84
2021/03/27 23:15:56;;;;;;;34.38;26.23;;;;;;;7.82;47.31;101173.84;1676434;85;21199;-83
2021/03/27 23:18:47;;;;;;;34.80;26.33;;;;;;;7.84;47.22;101173.23;1682980;85;21776;-84
2021/03/27 23:21:54;;;;;;;32.07;27.03;;;;;;;7.86;47.26;101170.76;1669550;85;21199;-85
2021/03/27 23:24:31;;;;;;;32.97;27.07;;;;;;;7.84;47.38;101181.19;1680224;84;21119;-81
2021/03/27 23:27:40;;;;;;;36.95;27.32;;;;;;;7.78;47.36;101177.31;1680047;85;21225;-82
2021/03/27 23:30:19;;;;;;;32.83;25.80;;;;;;;7.76;47.41;101182.77;1683282;84;21531;-84
2021/03/27 23:33:18;;;;;;;33.43;27.53;;;;;;;7.73;47.64;101178.25;1679612;84;21191;-82
2021/03/27 23:36:20;;;;;;;35.20;27.43;;;;;;;7.68;47.84;101177.85;1676427;85;21272;-84
2021/03/27 23:39:28;;;;;;;34.70;26.60;;;;;;;7.60;48.00;101183.91;1682725;85;21238;-85
2021/03/27 23:42:08;;;;;;;36.05;27.65;;;;;;;7.53;48.18;101178.84;1669058;85;21291;-82
2021/03/27 23:45:01;;;;;;;33.40;26.43;;;;;;;7.46;48.28;101178.61;1662700;84;21260;-81
2021/03/27 23:47:45;;;;;;;40.00;29.07;;;;;;;7.41;48.48;101173.73;1644721;83;21228;-83
2021/03/27 23:50:25;;;;;;;34.60;27.07;;;;;;;7.36;48.53;101182.61;1641583;84;21208;-81
2021/03/27 23:53:01;;;;;;;37.23;27.17;;;;;;;7.33;48.63;101178.94;1634241;87;22176;-81
2021/03/27 23:56:02;;;;;;;36.50;28.37;;;;;;;7.31;48.98;101180.05;1628540;86;21358;-83
2021/03/27 23:58:45;;;;;;;38.60;28.70;;;;;;;7.23;49.39;101175.98;1612931;87;21642;-81
